sensor_id;sensor_type;location;lat;lon;timestamp;P1;durP1;ratioP1;P2;durP2;ratioP2
8478;SDS011;4276;49.354;6.804;2022-07-06T00:00:05;3.30;;;2.15;;
8478;SDS011;4276;49.354;6.804;2022-07-06T00:02:32;2.03;;;1.80;;
8478;SDS011;4276;49.354;6.804;2022-07-06T00:04:59;3.00;;;2.10;;
8478;SDS011;4276;49.354;6.804;2022-07-06T00:07:25;3.72;;;1.80;;
8478;SDS011;4276;49.354;6.804;2022-07-06T00:09:52;2.75;;;1.80;;
8478;SDS011;4276;49.354;6.804;2022-07-06T00:12:18;2.85;;;1.70;;
8478;SDS011;4276;49.354;6.804;2022-07-06T00:14:45;2.10;;;1.60;;
8478;SDS011;4276;49.354;6.804;2022-07-06T00:17:11;3.05;;;1.80;;
8478;SDS011;4276;49.354;6.804;2022-07-06T00:19:38;3.05;;;1.80;;
8478;SDS011;4276;49.354;6.804;2022-07-06T00:22:04;4.05;;;1.95;;
8478;SDS011;4276;49.354;6.804;2022-07-06T00:24:31;1.80;;;1.70;;
8478;SDS011;4276;49.354;6.804;2022-07-06T00:26:57;3.30;;;1.92;;
8478;SDS011;4276;49.354;6.804;2022-07-06T00:29:24;3.60;;;2.03;;
8478;SDS011;4276;49.354;6.804;2022-07-06T00:31:50;2.50;;;1.90;;
8478;SDS011;4276;49.354;6.804;2022-07-06T00:34:17;3.25;;;1.80;;
8478;SDS011;4276;49.354;6.804;2022-07-06T00:36:43;4.07;;;2.13;;
8478;SDS011;4276;49.354;6.804;2022-07-06T00:39:10;1.92;;;1.60;;
8478;SDS011;4276;49.354;6.804;2022-07-06T00:41:36;4.22;;;1.98;;
8478;SDS011;4276;49.354;6.804;2022-07-06T00:44:06;2.95;;;1.92;;
8478;SDS011;4276;49.354;6.804;2022-07-06T00:46:34;2.47;;;1.90;;
8478;SDS011;4276;49.354;6.804;2022-07-06T00:49:01;2.58;;;1.95;;
8478;SDS011;4276;49.354;6.804;2022-07-06T00:51:31;2.95;;;1.80;;
8478;SDS011;4276;49.354;6.804;2022-07-06T00:54:00;2.67;;;1.77;;
8478;SDS011;4276;49.354;6.804;2022-07-06T00:56:29;3.22;;;1.75;;
8478;SDS011;4276;49.354;6.804;2022-07-06T00:58:57;2.05;;;1.80;;
8478;SDS011;4276;49.354;6.804;2022-07-06T01:01:27;2.20;;;2.10;;
8478;SDS011;4276;49.354;6.804;2022-07-06T01:03:54;1.75;;;1.65;;
8478;SDS011;4276;49.354;6.804;2022-07-06T01:06:21;2.55;;;2.00;;
8478;SDS011;4276;49.354;6.804;2022-07-06T01:08:48;2.92;;;2.05;;
8478;SDS011;4276;49.354;6.804;2022-07-06T01:11:15;2.45;;;2.00;;
8478;SDS011;4276;49.354;6.804;2022-07-06T01:13:42;2.78;;;2.00;;
8478;SDS011;4276;49.354;6.804;2022-07-06T01:16:09;3.00;;;1.90;;
8478;SDS011;4276;49.354;6.804;2022-07-06T01:18:35;3.50;;;1.90;;
8478;SDS011;4276;49.354;6.804;2022-07-06T01:21:09;3.95;;;2.10;;
8478;SDS011;4276;49.354;6.804;2022-07-06T01:23:40;3.10;;;1.90;;
8478;SDS011;4276;49.354;6.804;2022-07-06T01:26:08;4.05;;;2.42;;
8478;SDS011;4276;49.354;6.804;2022-07-06T01:28:36;2.25;;;2.05;;
8478;SDS011;4276;49.354;6.804;2022-07-06T01:31:03;2.58;;;2.05;;
8478;SDS011;4276;49.354;6.804;2022-07-06T01:33:29;3.92;;;2.00;;
8478;SDS011;4276;49.354;6.804;2022-07-06T01:35:56;2.33;;;1.92;;
8478;SDS011;4276;49.354;6.804;2022-07-06T01:38:22;3.42;;;2.25;;
8478;SDS011;4276;49.354;6.804;2022-07-06T01:40:49;2.10;;;1.90;;
8478;SDS011;4276;49.354;6.804;2022-07-06T01:43:16;2.85;;;2.20;;
8478;SDS011;4276;49.354;6.804;2022-07-06T01:45:42;2.58;;;2.20;;
8478;SDS011;4276;49.354;6.804;2022-07-06T01:48:09;3.20;;;1.90;;
8478;SDS011;4276;49.354;6.804;2022-07-06T01:50:35;3.15;;;2.00;;
8478;SDS011;4276;49.354;6.804;2022-07-06T01:53:02;2.50;;;1.50;;
8478;SDS011;4276;49.354;6.804;2022-07-06T01:55:28;2.40;;;2.08;;
8478;SDS011;4276;49.354;6.804;2022-07-06T01:57:55;2.08;;;1.98;;
8478;SDS011;4276;49.354;6.804;2022-07-06T02:00:21;1.90;;;1.80;;
8478;SDS011;4276;49.354;6.804;2022-07-06T02:02:48;2.22;;;2.03;;
8478;SDS011;4276;49.354;6.804;2022-07-06T02:05:14;2.50;;;1.90;;
8478;SDS011;4276;49.354;6.804;2022-07-06T02:07:41;2.17;;;1.98;;
8478;SDS011;4276;49.354;6.804;2022-07-06T02:10:08;2.10;;;2.00;;
8478;SDS011;4276;49.354;6.804;2022-07-06T02:12:34;2.42;;;2.00;;
8478;SDS011;4276;49.354;6.804;2022-07-06T02:15:01;2.35;;;1.75;;
8478;SDS011;4276;49.354;6.804;2022-07-06T02:17:27;3.10;;;2.40;;
8478;SDS011;4276;49.354;6.804;2022-07-06T02:19:54;3.45;;;2.47;;
8478;SDS011;4276;49.354;6.804;2022-07-06T02:22:20;2.65;;;2.45;;
8478;SDS011;4276;49.354;6.804;2022-07-06T02:24:47;3.38;;;2.40;;
8478;SDS011;4276;49.354;6.804;2022-07-06T02:27:13;2.65;;;2.40;;
8478;SDS011;4276;49.354;6.804;2022-07-06T02:29:40;2.03;;;1.83;;
8478;SDS011;4276;49.354;6.804;2022-07-06T02:32:06;2.42;;;2.33;;
8478;SDS011;4276;49.354;6.804;2022-07-06T02:34:33;2.65;;;2.30;;
8478;SDS011;4276;49.354;6.804;2022-07-06T02:37:00;2.33;;;2.13;;
8478;SDS011;4276;49.354;6.804;2022-07-06T02:39:26;2.50;;;2.30;;
8478;SDS011;4276;49.354;6.804;2022-07-06T02:41:53;2.92;;;2.22;;
8478;SDS011;4276;49.354;6.804;2022-07-06T02:44:19;2.25;;;2.05;;
8478;SDS011;4276;49.354;6.804;2022-07-06T02:46:46;2.75;;;2.00;;
8478;SDS011;4276;49.354;6.804;2022-07-06T02:49:12;2.90;;;2.35;;
8478;SDS011;4276;49.354;6.804;2022-07-06T02:51:39;2.83;;;1.70;;
8478;SDS011;4276;49.354;6.804;2022-07-06T02:54:05;2.53;;;2.33;;
8478;SDS011;4276;49.354;6.804;2022-07-06T02:56:32;2.78;;;2.20;;
8478;SDS011;4276;49.354;6.804;2022-07-06T02:58:58;2.25;;;2.05;;
8478;SDS011;4276;49.354;6.804;2022-07-06T03:01:25;3.15;;;2.22;;
8478;SDS011;4276;49.354;6.804;2022-07-06T03:03:52;2.80;;;2.30;;
8478;SDS011;4276;49.354;6.804;2022-07-06T03:06:18;3.72;;;2.08;;
8478;SDS011;4276;49.354;6.804;2022-07-06T03:08:45;2.33;;;2.13;;
8478;SDS011;4276;49.354;6.804;2022-07-06T03:11:11;2.33;;;2.05;;
8478;SDS011;4276;49.354;6.804;2022-07-06T03:13:38;2.08;;;1.88;;
8478;SDS011;4276;49.354;6.804;2022-07-06T03:16:04;1.90;;;1.80;;
8478;SDS011;4276;49.354;6.804;2022-07-06T03:18:31;2.53;;;2.33;;
8478;SDS011;4276;49.354;6.804;2022-07-06T03:20:57;2.35;;;2.15;;
8478;SDS011;4276;49.354;6.804;2022-07-06T03:23:24;2.80;;;2.00;;
8478;SDS011;4276;49.354;6.804;2022-07-06T03:25:50;3.08;;;1.98;;
8478;SDS011;4276;49.354;6.804;2022-07-06T03:28:17;2.10;;;1.90;;
8478;SDS011;4276;49.354;6.804;2022-07-06T03:30:44;2.38;;;2.15;;
8478;SDS011;4276;49.354;6.804;2022-07-06T03:33:10;2.20;;;2.10;;
8478;SDS011;4276;49.354;6.804;2022-07-06T03:35:37;8.77;;;2.45;;
8478;SDS011;4276;49.354;6.804;2022-07-06T03:38:03;2.58;;;2.40;;
8478;SDS011;4276;49.354;6.804;2022-07-06T03:40:30;2.45;;;2.17;;
8478;SDS011;4276;49.354;6.804;2022-07-06T03:42:56;3.92;;;2.20;;
8478;SDS011;4276;49.354;6.804;2022-07-06T03:45:23;3.10;;;2.40;;
8478;SDS011;4276;49.354;6.804;2022-07-06T03:47:49;2.55;;;2.33;;
8478;SDS011;4276;49.354;6.804;2022-07-06T03:50:16;2.88;;;2.28;;
8478;SDS011;4276;49.354;6.804;2022-07-06T03:52:42;6.10;;;3.00;;
8478;SDS011;4276;49.354;6.804;2022-07-06T03:55:09;4.00;;;2.55;;
8478;SDS011;4276;49.354;6.804;2022-07-06T03:57:40;2.40;;;2.20;;
8478;SDS011;4276;49.354;6.804;2022-07-06T04:00:07;4.72;;;3.10;;
8478;SDS011;4276;49.354;6.804;2022-07-06T04:02:34;7.85;;;5.35;;
8478;SDS011;4276;49.354;6.804;2022-07-06T04:05:01;11.95;;;8.68;;
8478;SDS011;4276;49.354;6.804;2022-07-06T04:07:28;9.48;;;7.47;;
8478;SDS011;4276;49.354;6.804;2022-07-06T04:09:54;8.57;;;6.28;;
8478;SDS011;4276;49.354;6.804;2022-07-06T04:12:21;6.68;;;5.97;;
8478;SDS011;4276;49.354;6.804;2022-07-06T04:14:47;7.38;;;5.68;;
8478;SDS011;4276;49.354;6.804;2022-07-06T04:17:14;5.68;;;4.97;;
8478;SDS011;4276;49.354;6.804;2022-07-06T04:19:59;5.25;;;4.20;;
8478;SDS011;4276;49.354;6.804;2022-07-06T04:22:26;4.55;;;3.80;;
8478;SDS011;4276;49.354;6.804;2022-07-06T04:24:53;4.40;;;4.00;;
8478;SDS011;4276;49.354;6.804;2022-07-06T04:27:19;5.18;;;4.13;;
8478;SDS011;4276;49.354;6.804;2022-07-06T04:29:46;5.22;;;3.63;;
8478;SDS011;4276;49.354;6.804;2022-07-06T04:32:12;4.78;;;3.65;;
8478;SDS011;4276;49.354;6.804;2022-07-06T04:34:39;3.80;;;3.40;;
8478;SDS011;4276;49.354;6.804;2022-07-06T04:37:05;5.13;;;2.80;;
8478;SDS011;4276;49.354;6.804;2022-07-06T04:39:32;2.63;;;2.30;;
8478;SDS011;4276;49.354;6.804;2022-07-06T04:41:59;4.45;;;2.30;;
8478;SDS011;4276;49.354;6.804;2022-07-06T04:44:25;3.30;;;1.77;;
8478;SDS011;4276;49.354;6.804;2022-07-06T04:46:52;2.22;;;1.83;;
8478;SDS011;4276;49.354;6.804;2022-07-06T04:49:18;2.78;;;2.15;;
8478;SDS011;4276;49.354;6.804;2022-07-06T04:51:45;2.58;;;2.17;;
8478;SDS011;4276;49.354;6.804;2022-07-06T04:54:11;2.50;;;1.73;;
8478;SDS011;4276;49.354;6.804;2022-07-06T04:56:38;2.88;;;1.63;;
8478;SDS011;4276;49.354;6.804;2022-07-06T04:59:04;2.08;;;1.88;;
8478;SDS011;4276;49.354;6.804;2022-07-06T05:01:31;3.80;;;1.90;;
8478;SDS011;4276;49.354;6.804;2022-07-06T05:03:58;1.88;;;1.67;;
8478;SDS011;4276;49.354;6.804;2022-07-06T05:06:25;1.83;;;1.70;;
8478;SDS011;4276;49.354;6.804;2022-07-06T05:08:51;2.05;;;1.63;;
8478;SDS011;4276;49.354;6.804;2022-07-06T05:11:18;2.25;;;1.85;;
8478;SDS011;4276;49.354;6.804;2022-07-06T05:13:44;2.40;;;1.77;;
8478;SDS011;4276;49.354;6.804;2022-07-06T05:16:11;3.85;;;1.90;;
8478;SDS011;4276;49.354;6.804;2022-07-06T05:18:37;2.47;;;1.58;;
8478;SDS011;4276;49.354;6.804;2022-07-06T05:21:04;1.95;;;1.40;;
8478;SDS011;4276;49.354;6.804;2022-07-06T05:23:31;3.05;;;1.55;;
8478;SDS011;4276;49.354;6.804;2022-07-06T05:25:57;1.80;;;1.70;;
8478;SDS011;4276;49.354;6.804;2022-07-06T05:28:24;2.22;;;1.75;;
8478;SDS011;4276;49.354;6.804;2022-07-06T05:30:51;1.65;;;1.55;;
8478;SDS011;4276;49.354;6.804;2022-07-06T05:33:18;1.67;;;1.58;;
8478;SDS011;4276;49.354;6.804;2022-07-06T05:35:44;1.92;;;1.67;;
8478;SDS011;4276;49.354;6.804;2022-07-06T05:38:17;2.92;;;1.80;;
8478;SDS011;4276;49.354;6.804;2022-07-06T05:40:45;2.00;;;1.80;;
8478;SDS011;4276;49.354;6.804;2022-07-06T05:43:11;3.17;;;1.88;;
8478;SDS011;4276;49.354;6.804;2022-07-06T05:45:38;2.70;;;1.90;;
8478;SDS011;4276;49.354;6.804;2022-07-06T05:48:04;2.15;;;1.88;;
8478;SDS011;4276;49.354;6.804;2022-07-06T05:50:50;1.77;;;1.58;;
8478;SDS011;4276;49.354;6.804;2022-07-06T05:53:17;1.60;;;1.50;;
8478;SDS011;4276;49.354;6.804;2022-07-06T05:55:46;2.00;;;1.77;;
8478;SDS011;4276;49.354;6.804;2022-07-06T05:58:15;1.65;;;1.20;;
8478;SDS011;4276;49.354;6.804;2022-07-06T06:00:41;1.88;;;1.48;;
8478;SDS011;4276;49.354;6.804;2022-07-06T06:03:08;2.45;;;1.50;;
8478;SDS011;4276;49.354;6.804;2022-07-06T06:05:35;1.58;;;1.25;;
8478;SDS011;4276;49.354;6.804;2022-07-06T06:08:01;3.25;;;1.63;;
8478;SDS011;4276;49.354;6.804;2022-07-06T06:10:28;1.92;;;1.45;;
8478;SDS011;4276;49.354;6.804;2022-07-06T06:12:54;2.47;;;1.35;;
8478;SDS011;4276;49.354;6.804;2022-07-06T06:15:21;3.03;;;1.80;;
8478;SDS011;4276;49.354;6.804;2022-07-06T06:17:48;2.65;;;1.70;;
8478;SDS011;4276;49.354;6.804;2022-07-06T06:20:14;4.45;;;2.20;;
8478;SDS011;4276;49.354;6.804;2022-07-06T06:22:48;2.58;;;1.50;;
8478;SDS011;4276;49.354;6.804;2022-07-06T06:25:29;2.22;;;1.77;;
8478;SDS011;4276;49.354;6.804;2022-07-06T06:27:56;2.40;;;1.58;;
8478;SDS011;4276;49.354;6.804;2022-07-06T06:30:23;2.80;;;1.67;;
8478;SDS011;4276;49.354;6.804;2022-07-06T06:32:50;2.17;;;1.30;;
8478;SDS011;4276;49.354;6.804;2022-07-06T06:35:16;1.55;;;1.40;;
8478;SDS011;4276;49.354;6.804;2022-07-06T06:37:43;1.60;;;1.42;;
8478;SDS011;4276;49.354;6.804;2022-07-06T06:40:10;1.73;;;1.30;;
8478;SDS011;4276;49.354;6.804;2022-07-06T06:42:37;3.63;;;1.60;;
8478;SDS011;4276;49.354;6.804;2022-07-06T06:45:04;4.90;;;1.60;;
8478;SDS011;4276;49.354;6.804;2022-07-06T06:47:31;3.28;;;1.60;;
8478;SDS011;4276;49.354;6.804;2022-07-06T06:49:58;2.63;;;2.03;;
8478;SDS011;4276;49.354;6.804;2022-07-06T06:52:24;3.88;;;1.50;;
8478;SDS011;4276;49.354;6.804;2022-07-06T06:55:07;1.90;;;1.58;;
8478;SDS011;4276;49.354;6.804;2022-07-06T06:57:34;2.33;;;1.50;;
8478;SDS011;4276;49.354;6.804;2022-07-06T07:00:00;2.85;;;1.63;;
8478;SDS011;4276;49.354;6.804;2022-07-06T07:02:27;4.22;;;1.52;;
8478;SDS011;4276;49.354;6.804;2022-07-06T07:04:54;2.95;;;1.58;;
8478;SDS011;4276;49.354;6.804;2022-07-06T07:07:21;1.58;;;1.38;;
8478;SDS011;4276;49.354;6.804;2022-07-06T07:09:47;2.40;;;1.75;;
8478;SDS011;4276;49.354;6.804;2022-07-06T07:12:14;3.42;;;1.52;;
8478;SDS011;4276;49.354;6.804;2022-07-06T07:14:43;2.42;;;1.42;;
8478;SDS011;4276;49.354;6.804;2022-07-06T07:17:10;2.40;;;1.67;;
8478;SDS011;4276;49.354;6.804;2022-07-06T07:19:37;2.30;;;1.65;;
8478;SDS011;4276;49.354;6.804;2022-07-06T07:22:04;1.90;;;1.48;;
8478;SDS011;4276;49.354;6.804;2022-07-06T07:24:31;2.13;;;1.10;;
8478;SDS011;4276;49.354;6.804;2022-07-06T07:26:57;3.13;;;1.83;;
8478;SDS011;4276;49.354;6.804;2022-07-06T07:29:25;3.67;;;1.70;;
8478;SDS011;4276;49.354;6.804;2022-07-06T07:31:52;3.33;;;1.77;;
8478;SDS011;4276;49.354;6.804;2022-07-06T07:34:19;2.53;;;1.60;;
8478;SDS011;4276;49.354;6.804;2022-07-06T07:36:45;2.67;;;1.60;;
8478;SDS011;4276;49.354;6.804;2022-07-06T07:39:12;2.55;;;1.52;;
8478;SDS011;4276;49.354;6.804;2022-07-06T07:41:38;2.38;;;1.50;;
8478;SDS011;4276;49.354;6.804;2022-07-06T07:44:08;1.58;;;1.50;;
8478;SDS011;4276;49.354;6.804;2022-07-06T07:46:34;2.50;;;1.58;;
8478;SDS011;4276;49.354;6.804;2022-07-06T07:49:01;2.72;;;1.70;;
8478;SDS011;4276;49.354;6.804;2022-07-06T07:51:28;2.78;;;1.60;;
8478;SDS011;4276;49.354;6.804;2022-07-06T07:53:54;2.97;;;1.70;;
8478;SDS011;4276;49.354;6.804;2022-07-06T07:56:21;1.58;;;1.48;;
8478;SDS011;4276;49.354;6.804;2022-07-06T07:58:47;2.17;;;1.33;;
8478;SDS011;4276;49.354;6.804;2022-07-06T08:01:15;2.35;;;1.40;;
8478;SDS011;4276;49.354;6.804;2022-07-06T08:03:41;1.52;;;1.30;;
8478;SDS011;4276;49.354;6.804;2022-07-06T08:06:08;4.15;;;1.65;;
8478;SDS011;4276;49.354;6.804;2022-07-06T08:08:37;3.60;;;1.60;;
8478;SDS011;4276;49.354;6.804;2022-07-06T08:11:04;3.65;;;1.70;;
8478;SDS011;4276;49.354;6.804;2022-07-06T08:13:43;3.35;;;1.70;;
8478;SDS011;4276;49.354;6.804;2022-07-06T08:16:10;1.70;;;1.30;;
8478;SDS011;4276;49.354;6.804;2022-07-06T08:18:37;1.77;;;1.55;;
8478;SDS011;4276;49.354;6.804;2022-07-06T08:21:03;2.28;;;1.75;;
8478;SDS011;4276;49.354;6.804;2022-07-06T08:23:50;3.45;;;1.63;;
8478;SDS011;4276;49.354;6.804;2022-07-06T08:26:17;4.22;;;1.63;;
8478;SDS011;4276;49.354;6.804;2022-07-06T08:28:43;3.20;;;1.52;;
8478;SDS011;4276;49.354;6.804;2022-07-06T08:31:10;3.60;;;1.70;;
8478;SDS011;4276;49.354;6.804;2022-07-06T08:33:57;1.60;;;1.40;;
8478;SDS011;4276;49.354;6.804;2022-07-06T08:36:24;2.40;;;1.40;;
8478;SDS011;4276;49.354;6.804;2022-07-06T08:38:51;1.58;;;1.48;;
8478;SDS011;4276;49.354;6.804;2022-07-06T08:41:18;3.00;;;1.80;;
8478;SDS011;4276;49.354;6.804;2022-07-06T08:43:54;2.17;;;1.65;;
8478;SDS011;4276;49.354;6.804;2022-07-06T08:46:21;2.33;;;1.42;;
8478;SDS011;4276;49.354;6.804;2022-07-06T08:48:48;2.08;;;1.60;;
8478;SDS011;4276;49.354;6.804;2022-07-06T08:51:16;1.50;;;1.23;;
8478;SDS011;4276;49.354;6.804;2022-07-06T08:53:43;2.03;;;1.45;;
8478;SDS011;4276;49.354;6.804;2022-07-06T08:56:10;5.53;;;1.60;;
8478;SDS011;4276;49.354;6.804;2022-07-06T08:58:37;2.60;;;1.65;;
8478;SDS011;4276;49.354;6.804;2022-07-06T09:01:10;3.72;;;1.70;;
8478;SDS011;4276;49.354;6.804;2022-07-06T09:03:40;1.80;;;1.40;;
8478;SDS011;4276;49.354;6.804;2022-07-06T09:06:07;1.73;;;1.52;;
8478;SDS011;4276;49.354;6.804;2022-07-06T09:08:35;1.33;;;1.23;;
8478;SDS011;4276;49.354;6.804;2022-07-06T09:11:05;1.77;;;1.67;;
8478;SDS011;4276;49.354;6.804;2022-07-06T09:13:32;2.70;;;1.33;;
8478;SDS011;4276;49.354;6.804;2022-07-06T09:16:12;2.78;;;1.88;;
8478;SDS011;4276;49.354;6.804;2022-07-06T09:18:59;3.10;;;1.70;;
8478;SDS011;4276;49.354;6.804;2022-07-06T09:21:26;2.53;;;1.45;;
8478;SDS011;4276;49.354;6.804;2022-07-06T09:24:00;4.30;;;2.20;;
8478;SDS011;4276;49.354;6.804;2022-07-06T09:26:29;2.53;;;1.63;;
8478;SDS011;4276;49.354;6.804;2022-07-06T09:28:56;1.55;;;1.45;;
8478;SDS011;4276;49.354;6.804;2022-07-06T09:31:23;3.35;;;1.70;;
8478;SDS011;4276;49.354;6.804;2022-07-06T09:33:54;2.33;;;1.40;;
8478;SDS011;4276;49.354;6.804;2022-07-06T09:41:59;1.63;;;1.30;;
8478;SDS011;4276;49.354;6.804;2022-07-06T09:44:27;2.78;;;1.30;;
8478;SDS011;4276;49.354;6.804;2022-07-06T09:46:55;2.10;;;1.60;;
8478;SDS011;4276;49.354;6.804;2022-07-06T09:49:23;2.88;;;1.30;;
8478;SDS011;4276;49.354;6.804;2022-07-06T09:51:51;2.47;;;1.38;;
8478;SDS011;4276;49.354;6.804;2022-07-06T09:54:19;2.55;;;1.42;;
8478;SDS011;4276;49.354;6.804;2022-07-06T09:56:47;1.90;;;1.40;;
8478;SDS011;4276;49.354;6.804;2022-07-06T09:59:21;1.40;;;1.30;;
8478;SDS011;4276;49.354;6.804;2022-07-06T10:01:52;1.27;;;1.17;;
8478;SDS011;4276;49.354;6.804;2022-07-06T10:04:21;1.95;;;1.20;;
8478;SDS011;4276;49.354;6.804;2022-07-06T10:06:48;1.95;;;1.45;;
8478;SDS011;4276;49.354;6.804;2022-07-06T10:09:15;1.63;;;1.33;;
8478;SDS011;4276;49.354;6.804;2022-07-06T10:11:43;2.70;;;1.55;;
8478;SDS011;4276;49.354;6.804;2022-07-06T10:14:17;1.73;;;1.58;;
8478;SDS011;4276;49.354;6.804;2022-07-06T10:16:45;2.58;;;1.52;;
8478;SDS011;4276;49.354;6.804;2022-07-06T10:19:12;1.65;;;1.55;;
8478;SDS011;4276;49.354;6.804;2022-07-06T10:21:40;1.90;;;1.38;;
8478;SDS011;4276;49.354;6.804;2022-07-06T10:24:08;1.90;;;1.38;;
8478;SDS011;4276;49.354;6.804;2022-07-06T10:26:35;2.33;;;1.10;;
8478;SDS011;4276;49.354;6.804;2022-07-06T10:29:03;2.28;;;1.40;;
8478;SDS011;4276;49.354;6.804;2022-07-06T10:31:31;1.60;;;1.20;;
8478;SDS011;4276;49.354;6.804;2022-07-06T10:34:00;1.58;;;1.40;;
8478;SDS011;4276;49.354;6.804;2022-07-06T10:36:28;1.98;;;1.17;;
8478;SDS011;4276;49.354;6.804;2022-07-06T10:38:55;1.85;;;1.20;;
8478;SDS011;4276;49.354;6.804;2022-07-06T10:41:32;1.45;;;1.25;;
8478;SDS011;4276;49.354;6.804;2022-07-06T10:44:19;2.35;;;1.50;;
8478;SDS011;4276;49.354;6.804;2022-07-06T10:46:54;2.63;;;1.40;;
8478;SDS011;4276;49.354;6.804;2022-07-06T10:49:22;2.50;;;1.30;;
8478;SDS011;4276;49.354;6.804;2022-07-06T10:52:10;2.58;;;1.38;;
8478;SDS011;4276;49.354;6.804;2022-07-06T10:54:39;2.45;;;1.35;;
8478;SDS011;4276;49.354;6.804;2022-07-06T10:57:09;2.15;;;1.55;;
8478;SDS011;4276;49.354;6.804;2022-07-06T10:59:36;2.58;;;1.45;;
8478;SDS011;4276;49.354;6.804;2022-07-06T11:02:12;2.10;;;1.60;;
8478;SDS011;4276;49.354;6.804;2022-07-06T11:04:44;2.70;;;1.40;;
8478;SDS011;4276;49.354;6.804;2022-07-06T11:07:13;1.25;;;1.13;;
8478;SDS011;4276;49.354;6.804;2022-07-06T11:09:40;1.48;;;1.30;;
8478;SDS011;4276;49.354;6.804;2022-07-06T11:12:17;1.63;;;1.13;;
8478;SDS011;4276;49.354;6.804;2022-07-06T11:14:47;1.15;;;1.05;;
8478;SDS011;4276;49.354;6.804;2022-07-06T11:17:15;2.83;;;1.08;;
8478;SDS011;4276;49.354;6.804;2022-07-06T11:19:49;2.17;;;1.42;;
8478;SDS011;4276;49.354;6.804;2022-07-06T11:22:17;2.92;;;1.38;;
8478;SDS011;4276;49.354;6.804;2022-07-06T11:24:44;2.08;;;1.10;;
8478;SDS011;4276;49.354;6.804;2022-07-06T11:27:11;1.17;;;1.02;;
8478;SDS011;4276;49.354;6.804;2022-07-06T11:29:38;1.50;;;1.25;;
8478;SDS011;4276;49.354;6.804;2022-07-06T11:32:06;2.25;;;1.40;;
8478;SDS011;4276;49.354;6.804;2022-07-06T11:34:36;1.88;;;1.30;;
8478;SDS011;4276;49.354;6.804;2022-07-06T11:37:06;1.27;;;1.17;;
8478;SDS011;4276;49.354;6.804;2022-07-06T11:39:40;2.05;;;1.23;;
8478;SDS011;4276;49.354;6.804;2022-07-06T11:42:09;1.35;;;1.25;;
8478;SDS011;4276;49.354;6.804;2022-07-06T11:44:36;2.45;;;1.42;;
8478;SDS011;4276;49.354;6.804;2022-07-06T11:47:04;1.70;;;1.40;;
8478;SDS011;4276;49.354;6.804;2022-07-06T11:49:33;1.95;;;1.20;;
8478;SDS011;4276;49.354;6.804;2022-07-06T11:52:21;1.60;;;1.13;;
8478;SDS011;4276;49.354;6.804;2022-07-06T11:54:56;1.55;;;1.13;;
8478;SDS011;4276;49.354;6.804;2022-07-06T11:57:23;2.08;;;1.35;;
8478;SDS011;4276;49.354;6.804;2022-07-06T11:59:50;2.22;;;1.17;;
8478;SDS011;4276;49.354;6.804;2022-07-06T12:02:18;0.93;;;0.90;;
8478;SDS011;4276;49.354;6.804;2022-07-06T12:04:45;2.35;;;1.30;;
8478;SDS011;4276;49.354;6.804;2022-07-06T12:07:13;3.40;;;1.40;;
8478;SDS011;4276;49.354;6.804;2022-07-06T12:09:42;1.25;;;1.00;;
8478;SDS011;4276;49.354;6.804;2022-07-06T12:12:10;3.08;;;1.20;;
8478;SDS011;4276;49.354;6.804;2022-07-06T12:14:38;2.03;;;1.20;;
8478;SDS011;4276;49.354;6.804;2022-07-06T12:17:09;2.55;;;1.10;;
8478;SDS011;4276;49.354;6.804;2022-07-06T12:19:36;1.48;;;1.00;;
8478;SDS011;4276;49.354;6.804;2022-07-06T12:22:04;1.75;;;1.38;;
8478;SDS011;4276;49.354;6.804;2022-07-06T12:24:32;1.17;;;0.63;;
8478;SDS011;4276;49.354;6.804;2022-07-06T12:27:10;2.75;;;1.10;;
8478;SDS011;4276;49.354;6.804;2022-07-06T12:29:36;1.60;;;0.85;;
8478;SDS011;4276;49.354;6.804;2022-07-06T12:32:03;1.52;;;1.00;;
8478;SDS011;4276;49.354;6.804;2022-07-06T12:34:31;5.05;;;1.67;;
8478;SDS011;4276;49.354;6.804;2022-07-06T12:37:05;1.92;;;1.30;;
8478;SDS011;4276;49.354;6.804;2022-07-06T12:39:40;0.88;;;0.88;;
8478;SDS011;4276;49.354;6.804;2022-07-06T12:42:08;2.03;;;1.00;;
8478;SDS011;4276;49.354;6.804;2022-07-06T12:44:52;1.35;;;0.90;;
8478;SDS011;4276;49.354;6.804;2022-07-06T12:47:20;1.15;;;1.05;;
8478;SDS011;4276;49.354;6.804;2022-07-06T12:49:48;4.43;;;0.88;;
8478;SDS011;4276;49.354;6.804;2022-07-06T12:52:16;2.05;;;1.00;;
8478;SDS011;4276;49.354;6.804;2022-07-06T12:54:44;1.13;;;0.73;;
8478;SDS011;4276;49.354;6.804;2022-07-06T12:57:17;1.63;;;0.85;;
8478;SDS011;4276;49.354;6.804;2022-07-06T12:59:46;1.33;;;0.90;;
8478;SDS011;4276;49.354;6.804;2022-07-06T13:05:14;1.70;;;0.70;;
8478;SDS011;4276;49.354;6.804;2022-07-06T13:07:45;2.35;;;0.80;;
8478;SDS011;4276;49.354;6.804;2022-07-06T13:10:13;1.92;;;1.00;;
8478;SDS011;4276;49.354;6.804;2022-07-06T13:12:40;2.00;;;1.20;;
8478;SDS011;4276;49.354;6.804;2022-07-06T13:15:07;1.27;;;1.00;;
8478;SDS011;4276;49.354;6.804;2022-07-06T13:17:35;1.65;;;0.93;;
8478;SDS011;4276;49.354;6.804;2022-07-06T13:20:04;2.15;;;1.20;;
8478;SDS011;4276;49.354;6.804;2022-07-06T13:22:31;1.25;;;0.90;;
8478;SDS011;4276;49.354;6.804;2022-07-06T13:24:58;1.85;;;0.88;;
8478;SDS011;4276;49.354;6.804;2022-07-06T13:27:24;3.60;;;0.90;;
8478;SDS011;4276;49.354;6.804;2022-07-06T13:29:51;1.98;;;0.70;;
8478;SDS011;4276;49.354;6.804;2022-07-06T13:32:18;4.78;;;1.20;;
8478;SDS011;4276;49.354;6.804;2022-07-06T13:34:45;1.67;;;0.98;;
8478;SDS011;4276;49.354;6.804;2022-07-06T13:37:11;4.68;;;1.30;;
8478;SDS011;4276;49.354;6.804;2022-07-06T13:39:38;1.90;;;0.90;;
8478;SDS011;4276;49.354;6.804;2022-07-06T13:42:04;1.08;;;0.80;;
8478;SDS011;4276;49.354;6.804;2022-07-06T13:44:31;1.20;;;0.80;;
8478;SDS011;4276;49.354;6.804;2022-07-06T13:46:57;1.65;;;1.00;;
8478;SDS011;4276;49.354;6.804;2022-07-06T13:49:24;2.35;;;1.15;;
8478;SDS011;4276;49.354;6.804;2022-07-06T13:51:57;2.20;;;0.80;;
8478;SDS011;4276;49.354;6.804;2022-07-06T13:54:30;0.88;;;0.80;;
8478;SDS011;4276;49.354;6.804;2022-07-06T13:56:56;1.52;;;1.00;;
8478;SDS011;4276;49.354;6.804;2022-07-06T13:59:23;2.15;;;1.23;;
8478;SDS011;4276;49.354;6.804;2022-07-06T14:01:50;1.58;;;1.10;;
8478;SDS011;4276;49.354;6.804;2022-07-06T14:04:16;1.42;;;1.00;;
8478;SDS011;4276;49.354;6.804;2022-07-06T14:06:43;1.38;;;1.00;;
8478;SDS011;4276;49.354;6.804;2022-07-06T14:09:09;1.77;;;1.33;;
8478;SDS011;4276;49.354;6.804;2022-07-06T14:11:36;3.05;;;1.00;;
8478;SDS011;4276;49.354;6.804;2022-07-06T14:14:03;1.23;;;1.05;;
8478;SDS011;4276;49.354;6.804;2022-07-06T14:16:33;1.17;;;0.80;;
8478;SDS011;4276;49.354;6.804;2022-07-06T14:19:01;2.72;;;1.00;;
8478;SDS011;4276;49.354;6.804;2022-07-06T14:21:28;1.55;;;1.10;;
8478;SDS011;4276;49.354;6.804;2022-07-06T14:23:55;1.70;;;1.00;;
8478;SDS011;4276;49.354;6.804;2022-07-06T14:26:22;0.80;;;0.80;;
8478;SDS011;4276;49.354;6.804;2022-07-06T14:28:49;2.33;;;1.10;;
8478;SDS011;4276;49.354;6.804;2022-07-06T14:31:16;1.50;;;1.02;;
8478;SDS011;4276;49.354;6.804;2022-07-06T14:33:47;1.52;;;1.08;;
8478;SDS011;4276;49.354;6.804;2022-07-06T14:36:15;1.00;;;1.00;;
8478;SDS011;4276;49.354;6.804;2022-07-06T14:38:41;1.42;;;1.10;;
8478;SDS011;4276;49.354;6.804;2022-07-06T14:41:08;1.20;;;0.85;;
8478;SDS011;4276;49.354;6.804;2022-07-06T14:43:34;2.00;;;1.77;;
8478;SDS011;4276;49.354;6.804;2022-07-06T14:46:02;1.20;;;1.10;;
8478;SDS011;4276;49.354;6.804;2022-07-06T14:48:30;0.77;;;0.77;;
8478;SDS011;4276;49.354;6.804;2022-07-06T14:50:57;1.45;;;1.15;;
8478;SDS011;4276;49.354;6.804;2022-07-06T14:53:24;2.50;;;1.15;;
8478;SDS011;4276;49.354;6.804;2022-07-06T14:55:51;1.83;;;0.88;;
8478;SDS011;4276;49.354;6.804;2022-07-06T14:58:18;1.63;;;0.90;;
8478;SDS011;4276;49.354;6.804;2022-07-06T15:00:45;1.52;;;1.20;;
8478;SDS011;4276;49.354;6.804;2022-07-06T15:03:12;3.17;;;1.00;;
8478;SDS011;4276;49.354;6.804;2022-07-06T15:05:39;2.60;;;1.23;;
8478;SDS011;4276;49.354;6.804;2022-07-06T15:08:05;2.53;;;1.20;;
8478;SDS011;4276;49.354;6.804;2022-07-06T15:10:32;3.97;;;1.30;;
8478;SDS011;4276;49.354;6.804;2022-07-06T15:12:59;1.63;;;1.08;;
8478;SDS011;4276;49.354;6.804;2022-07-06T15:15:25;3.28;;;1.20;;
8478;SDS011;4276;49.354;6.804;2022-07-06T15:18:12;1.02;;;0.90;;
8478;SDS011;4276;49.354;6.804;2022-07-06T15:20:38;3.03;;;1.13;;
8478;SDS011;4276;49.354;6.804;2022-07-06T15:23:05;2.42;;;1.48;;
8478;SDS011;4276;49.354;6.804;2022-07-06T15:25:31;1.48;;;1.38;;
8478;SDS011;4276;49.354;6.804;2022-07-06T15:27:58;1.23;;;1.20;;